Time;durP1;ratioP1;P1;durP2;ratioP2;P2;SDS_P1;SDS_P2;PMS_P1;PMS_P2;Temp;Humidity;BMP_temperature;BMP_pressure;BME280_temperature;BME280_humidity;BME280_pressure;Samples;Min_cycle;Max_cycle;Signal;HPM_P1;HPM_P2
2022/08/12 00:42:57;;;;;;;;;16.00;16.00;;;;;;;;5072178;28;51052;-64
2022/08/12 00:45:22;;;;;;;;;16.00;16.00;;;;;;;;5072093;28;51300;-64
2022/08/12 00:47:50;;;;;;;;;18.00;18.00;;;;;;;;5072024;28;50931;-64
2022/08/12 00:50:18;;;;;;;;;16.00;15.25;;;;;;;;5072350;28;50918;-66
2022/08/12 00:52:49;;;;;;;;;17.00;15.50;;;;;;;;5072354;27;51377;-64
2022/08/12 00:55:15;;;;;;;;;15.25;15.25;;;;;;;;5071927;28;51898;-64
2022/08/12 00:57:43;;;;;;;;;18.00;17.50;;;;;;;;5072215;28;51055;-65
2022/08/12 01:00:10;;;;;;;;;18.00;18.00;;;;;;;;5072717;27;50949;-65
2022/08/12 01:02:40;;;;;;;;;17.50;17.50;;;;;;;;5071926;27;51060;-66
2022/08/12 01:13:20;;;;;;;;;15.50;15.50;;;;;;;;5075550;28;50876;-65
2022/08/12 01:15:48;;;;;;;;;16.75;16.75;;;;;;;;5074675;27;53040;-65
2022/08/12 01:18:13;;;;;;;;;17.25;17.25;;;;;;;;5075442;27;51247;-65
2022/08/12 01:20:48;;;;;;;;;18.50;17.25;;;;;;;;5075551;27;51383;-65
2022/08/12 01:23:14;;;;;;;;;16.75;16.75;;;;;;;;5061909;28;51251;-65
2022/08/12 01:25:43;;;;;;;;;19.00;18.75;;;;;;;;5074868;28;51625;-65
2022/08/12 01:28:12;;;;;;;;;15.75;15.75;;;;;;;;5075410;28;52148;-65
2022/08/12 01:30:38;;;;;;;;;19.75;19.00;;;;;;;;5074842;27;50862;-65
2022/08/12 01:33:05;;;;;;;;;16.50;16.50;;;;;;;;5075415;28;51511;-66
2022/08/12 01:35:31;;;;;;;;;17.00;16.25;;;;;;;;5054041;28;54089;-65
2022/08/12 01:37:58;;;;;;;;;20.00;19.00;;;;;;;;5075725;28;51174;-65
2022/08/12 01:40:27;;;;;;;;;15.75;15.75;;;;;;;;5062563;28;51034;-65
2022/08/12 01:42:54;;;;;;;;;18.75;18.50;;;;;;;;5075193;27;51272;-65
2022/08/12 01:45:23;;;;;;;;;17.25;17.00;;;;;;;;5074630;27;52118;-65
2022/08/12 01:48:06;;;;;;;;;17.25;16.75;;;;;;;;5074969;27;51127;-66
2022/08/12 01:50:51;;;;;;;;;15.75;15.50;;;;;;;;5073468;28;51353;-66
2022/08/12 01:53:19;;;;;;;;;16.50;16.25;;;;;;;;5074843;27;51375;-66
2022/08/12 01:55:45;;;;;;;;;15.75;15.25;;;;;;;;5074472;28;52196;-65
2022/08/12 01:58:17;;;;;;;;;18.00;18.00;;;;;;;;5074618;28;50901;-65
2022/08/12 02:00:51;;;;;;;;;15.25;15.00;;;;;;;;5074693;28;51178;-64
2022/08/12 02:12:07;;;;;;;;;16.50;16.00;;;;;;;;5060421;28;51137;-66
2022/08/12 02:14:33;;;;;;;;;17.25;17.00;;;;;;;;5063437;28;50938;-65
2022/08/12 02:17:07;;;;;;;;;15.75;15.75;;;;;;;;5074652;28;51060;-66
2022/08/12 02:19:33;;;;;;;;;16.50;16.50;;;;;;;;5074201;28;50962;-65
2022/08/12 02:22:07;;;;;;;;;15.50;15.50;;;;;;;;5074550;28;51246;-64
2022/08/12 02:24:36;;;;;;;;;17.00;17.00;;;;;;;;5072939;28;51337;-64
2022/08/12 02:27:01;;;;;;;;;16.50;15.50;;;;;;;;5073929;28;52287;-64
2022/08/12 02:29:26;;;;;;;;;16.75;16.75;;;;;;;;5074099;27;50961;-64
2022/08/12 02:31:52;;;;;;;;;16.50;15.50;;;;;;;;5073838;28;51167;-65
2022/08/12 02:34:18;;;;;;;;;19.00;18.75;;;;;;;;5074325;28;51124;-66
2022/08/12 02:36:44;;;;;;;;;18.25;18.25;;;;;;;;5073750;28;52809;-66
2022/08/12 02:39:13;;;;;;;;;16.50;15.50;;;;;;;;5070664;27;51044;-66
2022/08/12 02:41:41;;;;;;;;;14.25;14.25;;;;;;;;5071957;28;51080;-66
2022/08/12 02:44:07;;;;;;;;;15.75;15.75;;;;;;;;5073022;28;51011;-65
2022/08/12 02:46:33;;;;;;;;;15.00;14.75;;;;;;;;5073223;27;53392;-66
2022/08/12 02:49:01;;;;;;;;;15.00;14.25;;;;;;;;5073923;28;50909;-66
2022/08/12 02:51:31;;;;;;;;;14.00;14.00;;;;;;;;5073901;28;50882;-66
2022/08/12 02:53:57;;;;;;;;;11.50;9.75;;;;;;;;5074024;28;51158;-65
2022/08/12 02:56:22;;;;;;;;;16.75;16.75;;;;;;;;5073609;28;52293;-66
2022/08/12 02:58:48;;;;;;;;;16.00;15.25;;;;;;;;5073780;28;50908;-65
2022/08/12 03:01:14;;;;;;;;;14.50;14.50;;;;;;;;5073537;28;51065;-66
2022/08/12 03:03:40;;;;;;;;;16.75;16.25;;;;;;;;5073984;28;51393;-65
2022/08/12 03:06:13;;;;;;;;;15.25;15.00;;;;;;;;5073491;28;51909;-66
2022/08/12 03:08:41;;;;;;;;;13.25;12.50;;;;;;;;5074019;28;51005;-65
2022/08/12 03:11:14;;;;;;;;;14.75;14.25;;;;;;;;5064925;28;51003;-65
2022/08/12 03:13:40;;;;;;;;;15.50;15.00;;;;;;;;5066262;28;51081;-66
2022/08/12 03:16:06;;;;;;;;;16.00;16.00;;;;;;;;5072731;28;50904;-65
2022/08/12 03:18:31;;;;;;;;;15.75;15.25;;;;;;;;5073110;27;50855;-65
2022/08/12 03:21:00;;;;;;;;;15.25;15.25;;;;;;;;5073189;28;50790;-65
2022/08/12 03:23:26;;;;;;;;;14.00;14.00;;;;;;;;5073683;28;50962;-65
2022/08/12 03:25:52;;;;;;;;;13.75;13.25;;;;;;;;5072970;28;52458;-65
2022/08/12 03:28:49;;;;;;;;;15.00;15.00;;;;;;;;5073245;28;50996;-65
2022/08/12 03:31:05;;;;;;;;;17.50;16.50;;;;;;;;5072801;28;50918;-65
2022/08/12 03:33:33;;;;;;;;;15.25;15.00;;;;;;;;5073460;27;51193;-65
2022/08/12 03:36:00;;;;;;;;;15.75;15.25;;;;;;;;5071713;27;52291;-66
2022/08/12 03:38:28;;;;;;;;;14.50;14.50;;;;;;;;5071784;28;51072;-65
2022/08/12 04:00:53;;;;;;;;;14.00;14.00;;;;;;;;5072524;28;51256;-65
2022/08/12 04:06:03;;;;;;;;;16.75;16.75;;;;;;;;5072828;27;50893;-66
2022/08/12 04:08:29;;;;;;;;;16.75;16.00;;;;;;;;5072351;28;52017;-66
2022/08/12 04:13:39;;;;;;;;;16.00;16.00;;;;;;;;5072821;28;51016;-66
2022/08/12 04:16:06;;;;;;;;;17.25;16.50;;;;;;;;5072381;28;51083;-66
2022/08/12 04:18:32;;;;;;;;;16.50;16.50;;;;;;;;5072576;28;50857;-66
2022/08/12 04:20:57;;;;;;;;;19.00;17.00;;;;;;;;5072358;28;51155;-66
2022/08/12 04:23:24;;;;;;;;;18.00;18.00;;;;;;;;5072814;27;51134;-66
2022/08/12 04:25:49;;;;;;;;;17.50;17.50;;;;;;;;5072697;27;51043;-67
2022/08/12 04:28:14;;;;;;;;;17.25;16.75;;;;;;;;5072271;27;51227;-66
2022/08/12 04:30:40;;;;;;;;;17.50;17.00;;;;;;;;5072258;27;51032;-66
2022/08/12 04:33:08;;;;;;;;;13.00;13.00;;;;;;;;5072615;27;50976;-66
2022/08/12 04:35:34;;;;;;;;;15.25;14.50;;;;;;;;5072764;27;51046;-66
2022/08/12 04:37:59;;;;;;;;;16.50;15.50;;;;;;;;5072593;28;51711;-66
2022/08/12 04:40:26;;;;;;;;;17.25;16.50;;;;;;;;5072364;27;50956;-65
2022/08/12 04:42:51;;;;;;;;;16.00;14.00;;;;;;;;5072701;28;50845;-66
2022/08/12 04:45:17;;;;;;;;;15.50;14.50;;;;;;;;5072167;28;50970;-67
2022/08/12 04:47:43;;;;;;;;;17.50;15.75;;;;;;;;5075030;28;51065;-66
2022/08/12 04:50:08;;;;;;;;;10.75;10.50;;;;;;;;5075933;28;50948;-66
2022/08/12 04:52:33;;;;;;;;;14.25;14.25;;;;;;;;5074590;28;51354;-66
2022/08/12 04:54:59;;;;;;;;;18.25;18.00;;;;;;;;5074562;28;51377;-65
2022/08/12 04:57:24;;;;;;;;;16.50;16.00;;;;;;;;5075792;28;51533;-66
2022/08/12 04:59:49;;;;;;;;;16.75;15.75;;;;;;;;5075597;28;51000;-66
2022/08/12 05:02:16;;;;;;;;;14.00;14.00;;;;;;;;5075274;28;50864;-66
2022/08/12 05:04:41;;;;;;;;;14.75;13.25;;;;;;;;5075721;27;50862;-65
2022/08/12 05:07:07;;;;;;;;;16.25;15.75;;;;;;;;5075099;28;53224;-66
2022/08/12 05:09:32;;;;;;;;;14.25;13.50;;;;;;;;5075577;28;50932;-66
2022/08/12 05:11:57;;;;;;;;;13.50;13.50;;;;;;;;5075508;28;51175;-66
2022/08/12 05:14:22;;;;;;;;;15.75;14.25;;;;;;;;5075575;28;51312;-66
2022/08/12 05:16:47;;;;;;;;;16.25;16.00;;;;;;;;5074775;28;51317;-66
2022/08/12 05:19:13;;;;;;;;;16.75;15.00;;;;;;;;5075190;28;51041;-66
2022/08/12 05:21:38;;;;;;;;;15.00;15.00;;;;;;;;5076021;28;50860;-67
2022/08/12 05:24:04;;;;;;;;;16.25;16.00;;;;;;;;5076194;28;51228;-66
2022/08/12 05:26:29;;;;;;;;;15.75;15.75;;;;;;;;5074214;28;51938;-66
2022/08/12 05:28:54;;;;;;;;;16.25;15.75;;;;;;;;5075272;28;51086;-66
2022/08/12 05:31:20;;;;;;;;;14.75;14.75;;;;;;;;5075263;28;50948;-66
2022/08/12 05:33:46;;;;;;;;;14.50;14.25;;;;;;;;5075491;27;50966;-66
2022/08/12 05:36:13;;;;;;;;;15.50;15.50;;;;;;;;5074853;28;50991;-66
2022/08/12 05:38:56;;;;;;;;;16.00;15.25;;;;;;;;5075197;27;50967;-67
2022/08/12 05:41:29;;;;;;;;;14.75;14.50;;;;;;;;5064391;28;51193;-66
2022/08/12 05:43:56;;;;;;;;;16.75;15.50;;;;;;;;5075006;27;51401;-67
2022/08/12 05:46:22;;;;;;;;;15.00;15.00;;;;;;;;5072998;28;52232;-67
2022/08/12 05:48:48;;;;;;;;;16.25;16.00;;;;;;;;5074854;28;51063;-68
2022/08/12 05:51:14;;;;;;;;;16.00;16.00;;;;;;;;5074656;28;51020;-66
2022/08/12 05:53:40;;;;;;;;;14.00;14.00;;;;;;;;5074838;28;50835;-66
2022/08/12 05:56:06;;;;;;;;;14.00;14.00;;;;;;;;5074661;28;51967;-66
2022/08/12 05:58:31;;;;;;;;;17.00;15.00;;;;;;;;5073644;28;50904;-65
2022/08/12 06:00:57;;;;;;;;;15.00;15.00;;;;;;;;5074612;27;50870;-65
2022/08/12 06:03:24;;;;;;;;;14.75;14.75;;;;;;;;5075053;27;51281;-65
2022/08/12 06:05:50;;;;;;;;;14.00;14.00;;;;;;;;5074536;27;51065;-65
2022/08/12 06:08:17;;;;;;;;;13.75;12.25;;;;;;;;5074388;27;51115;-66
2022/08/12 06:10:44;;;;;;;;;13.25;13.25;;;;;;;;5074351;28;50894;-66
2022/08/12 06:13:10;;;;;;;;;14.25;14.25;;;;;;;;5073639;28;51380;-67
2022/08/12 06:15:36;;;;;;;;;12.25;12.25;;;;;;;;5074020;28;51112;-64
2022/08/12 06:18:06;;;;;;;;;14.75;12.75;;;;;;;;5074597;27;50969;-66
2022/08/12 06:20:31;;;;;;;;;15.50;15.25;;;;;;;;5074654;28;51167;-65
2022/08/12 06:22:56;;;;;;;;;13.00;12.50;;;;;;;;5074681;28;51013;-65
2022/08/12 06:25:22;;;;;;;;;15.00;15.00;;;;;;;;5074535;27;50986;-66
2022/08/12 06:27:48;;;;;;;;;13.00;13.00;;;;;;;;5074628;28;51103;-65
2022/08/12 06:30:18;;;;;;;;;13.33;13.33;;;;;;;;5075215;27;51086;-65
2022/08/12 06:32:46;;;;;;;;;13.50;13.50;;;;;;;;5074751;27;51132;-65
2022/08/12 06:35:12;;;;;;;;;13.50;12.50;;;;;;;;5074273;27;51232;-66
2022/08/12 06:37:55;;;;;;;;;14.25;13.75;;;;;;;;5074291;27;51193;-65
2022/08/12 06:42:46;;;;;;;;;14.00;14.00;;;;;;;;5074554;27;51163;-65
2022/08/12 06:43:06;;;;;;;;;14.00;14.00;;;;;;;;5074320;28;50925;-65
2022/08/12 06:45:32;;;;;;;;;14.75;14.25;;;;;;;;5074078;28;51921;-66
2022/08/12 06:48:00;;;;;;;;;14.50;13.50;;;;;;;;5072758;28;50971;-65
2022/08/12 06:50:26;;;;;;;;;15.00;15.00;;;;;;;;5074215;28;50889;-66
2022/08/12 06:52:51;;;;;;;;;12.50;12.25;;;;;;;;5074603;28;51083;-64
2022/08/12 06:55:19;;;;;;;;;14.00;13.50;;;;;;;;5074214;27;51477;-64
2022/08/12 06:57:53;;;;;;;;;13.25;13.25;;;;;;;;5074533;28;51068;-65
2022/08/12 07:00:24;;;;;;;;;13.25;12.75;;;;;;;;5074155;28;50977;-65
2022/08/12 07:02:50;;;;;;;;;13.50;13.50;;;;;;;;5075151;27;51335;-66
2022/08/12 07:05:23;;;;;;;;;13.50;12.00;;;;;;;;5072776;28;51746;-64
2022/08/12 07:07:49;;;;;;;;;12.50;12.00;;;;;;;;5073174;27;52059;-64
2022/08/12 07:10:14;;;;;;;;;11.50;11.50;;;;;;;;5074419;27;50955;-64
2022/08/12 07:12:39;;;;;;;;;12.00;12.00;;;;;;;;5081225;27;51388;-66
2022/08/12 07:15:05;;;;;;;;;11.25;11.25;;;;;;;;5074405;27;52008;-66
2022/08/12 07:17:35;;;;;;;;;11.75;11.75;;;;;;;;5073596;28;51132;-65
2022/08/12 07:20:08;;;;;;;;;11.50;11.50;;;;;;;;5073609;28;50906;-64
2022/08/12 07:22:33;;;;;;;;;10.00;10.00;;;;;;;;5068133;28;51027;-64
2022/08/12 07:27:43;;;;;;;;;12.25;11.50;;;;;;;;5071705;27;50910;-64
2022/08/12 07:30:09;;;;;;;;;11.00;10.75;;;;;;;;5083285;27;51085;-64
2022/08/12 07:32:34;;;;;;;;;12.00;12.00;;;;;;;;5078243;27;51187;-64
2022/08/12 07:35:02;;;;;;;;;10.50;10.50;;;;;;;;5072827;28;52208;-65
2022/08/12 07:37:28;;;;;;;;;10.75;10.75;;;;;;;;5070443;28;51036;-65
2022/08/12 07:39:53;;;;;;;;;14.25;13.50;;;;;;;;5053733;28;51048;-65
2022/08/12 07:42:18;;;;;;;;;10.75;10.75;;;;;;;;5070234;28;51299;-65
2022/08/12 07:44:44;;;;;;;;;11.25;11.25;;;;;;;;5081530;27;52101;-65
2022/08/12 07:47:09;;;;;;;;;10.75;10.75;;;;;;;;5075895;27;50902;-65
2022/08/12 07:49:34;;;;;;;;;12.25;11.50;;;;;;;;5073334;28;50907;-65
2022/08/12 07:51:59;;;;;;;;;13.25;11.75;;;;;;;;5072240;28;51068;-65
2022/08/12 07:54:25;;;;;;;;;10.00;10.00;;;;;;;;5069643;28;53367;-65
2022/08/12 07:56:50;;;;;;;;;8.25;8.25;;;;;;;;5072588;28;50907;-64
2022/08/12 07:59:15;;;;;;;;;8.25;8.25;;;;;;;;5073231;28;50950;-63
2022/08/12 08:01:41;;;;;;;;;9.75;9.75;;;;;;;;5072482;27;51205;-66
2022/08/12 08:06:51;;;;;;;;;10.75;10.75;;;;;;;;5070707;28;50899;-65
2022/08/12 08:09:18;;;;;;;;;19.00;19.00;;;;;;;;5065716;28;51188;-65
2022/08/12 08:14:27;;;;;;;;;8.50;8.50;;;;;;;;5065755;28;51528;-65
2022/08/12 08:16:54;;;;;;;;;9.00;9.00;;;;;;;;5069635;27;50883;-65
2022/08/12 08:19:22;;;;;;;;;9.75;9.25;;;;;;;;5066371;27;51132;-64
2022/08/12 08:21:47;;;;;;;;;11.00;10.50;;;;;;;;5071337;27;51158;-65
2022/08/12 08:24:15;;;;;;;;;8.75;8.75;;;;;;;;5069703;27;51178;-64
2022/08/12 08:26:41;;;;;;;;;8.75;8.75;;;;;;;;5069197;27;51166;-67
2022/08/12 08:29:07;;;;;;;;;9.25;9.00;;;;;;;;5069355;28;51170;-65
2022/08/12 08:31:32;;;;;;;;;8.25;8.25;;;;;;;;5069459;28;50978;-64
2022/08/12 08:33:58;;;;;;;;;9.00;8.75;;;;;;;;5074212;27;51028;-64
2022/08/12 08:36:23;;;;;;;;;8.75;8.75;;;;;;;;5068850;27;51173;-64
2022/08/12 08:38:48;;;;;;;;;7.75;7.75;;;;;;;;5073237;27;51260;-65
2022/08/12 08:43:59;;;;;;;;;8.75;8.75;;;;;;;;5064728;28;51617;-65
2022/08/12 08:46:25;;;;;;;;;8.75;7.75;;;;;;;;5056016;28;51101;-65
2022/08/12 08:48:50;;;;;;;;;9.00;8.50;;;;;;;;5058715;28;51120;-64
2022/08/12 08:51:15;;;;;;;;;9.50;9.50;;;;;;;;5072439;27;51369;-64
2022/08/12 08:53:42;;;;;;;;;9.75;9.00;;;;;;;;5061842;27;51778;-64
2022/08/12 08:56:09;;;;;;;;;8.00;7.25;;;;;;;;5063240;27;51125;-66
2022/08/12 08:58:36;;;;;;;;;9.50;9.25;;;;;;;;5058558;27;51287;-65
2022/08/12 09:01:03;;;;;;;;;11.25;10.75;;;;;;;;5062451;27;51123;-65
2022/08/12 09:03:29;;;;;;;;;11.25;10.75;;;;;;;;5063023;28;50909;-65
2022/08/12 09:05:54;;;;;;;;;9.00;8.75;;;;;;;;5069038;27;51098;-65
2022/08/12 09:08:21;;;;;;;;;9.00;9.00;;;;;;;;5057666;27;51212;-65
2022/08/12 09:10:46;;;;;;;;;8.00;8.00;;;;;;;;5081231;27;51106;-65
2022/08/12 09:13:26;;;;;;;;;9.75;9.75;;;;;;;;5071251;28;51908;-66
2022/08/12 09:15:51;;;;;;;;;8.25;8.25;;;;;;;;5065727;27;51091;-65
2022/08/12 09:18:17;;;;;;;;;9.00;9.00;;;;;;;;5064789;28;51225;-65
2022/08/12 09:20:43;;;;;;;;;9.00;9.00;;;;;;;;5068023;28;50917;-64
2022/08/12 09:23:10;;;;;;;;;8.00;8.00;;;;;;;;5071248;28;51909;-64
2022/08/12 09:25:35;;;;;;;;;9.00;9.00;;;;;;;;5070339;28;51166;-64
2022/08/12 09:28:01;;;;;;;;;8.00;8.00;;;;;;;;5065608;27;51410;-64
2022/08/12 09:30:27;;;;;;;;;8.50;8.50;;;;;;;;5067677;27;51500;-63
2022/08/12 09:32:52;;;;;;;;;7.00;7.00;;;;;;;;5072798;27;52216;-64
2022/08/12 09:35:25;;;;;;;;;7.50;7.00;;;;;;;;5074337;28;51201;-64
2022/08/12 09:37:51;;;;;;;;;9.75;8.50;;;;;;;;5073077;27;51068;-65
2022/08/12 09:40:18;;;;;;;;;8.00;8.00;;;;;;;;5074513;27;51119;-64
2022/08/12 09:45:27;;;;;;;;;8.25;7.75;;;;;;;;5072478;27;51226;-62
2022/08/12 09:47:53;;;;;;;;;8.75;8.50;;;;;;;;5073645;28;51321;-63
2022/08/12 09:50:18;;;;;;;;;10.75;10.50;;;;;;;;5056418;27;51165;-65
2022/08/12 09:52:51;;;;;;;;;8.00;8.00;;;;;;;;5063772;27;52226;-64
2022/08/12 09:55:16;;;;;;;;;9.00;9.00;;;;;;;;5071455;27;51099;-63
2022/08/12 09:57:41;;;;;;;;;9.00;9.00;;;;;;;;5062295;27;51159;-66
2022/08/12 10:00:11;;;;;;;;;8.50;8.50;;;;;;;;5066237;27;50978;-64
2022/08/12 10:02:37;;;;;;;;;9.00;8.00;;;;;;;;5064149;27;51738;-64
2022/08/12 10:05:03;;;;;;;;;9.75;8.25;;;;;;;;5067395;27;51114;-64
2022/08/12 10:07:29;;;;;;;;;8.25;8.25;;;;;;;;5070144;28;50986;-65
2022/08/12 10:09:54;;;;;;;;;8.00;8.00;;;;;;;;5075719;27;51316;-63
2022/08/12 10:15:04;;;;;;;;;8.50;8.50;;;;;;;;5059796;27;51132;-63
2022/08/12 10:17:29;;;;;;;;;8.25;8.25;;;;;;;;5069753;27;51161;-64
2022/08/12 10:19:54;;;;;;;;;8.75;8.75;;;;;;;;5061849;27;51297;-63
2022/08/12 10:22:19;;;;;;;;;9.00;9.00;;;;;;;;5063279;27;51144;-63
2022/08/12 10:29:35;;;;;;;;;8.50;8.50;;;;;;;;5065117;28;51174;-63
2022/08/12 10:30:14;;;;;;;;;7.00;7.00;;;;;;;;5072891;28;51070;-63
2022/08/12 10:32:39;;;;;;;;;8.25;8.25;;;;;;;;5072751;28;51862;-63
2022/08/12 10:35:05;;;;;;;;;7.75;7.75;;;;;;;;5073339;28;51267;-63
2022/08/12 10:37:30;;;;;;;;;7.25;7.25;;;;;;;;5071305;28;51257;-65
2022/08/12 10:39:55;;;;;;;;;7.25;7.25;;;;;;;;5073275;28;51062;-63
2022/08/12 10:45:06;;;;;;;;;7.50;7.50;;;;;;;;5072533;28;50977;-63
2022/08/12 10:47:32;;;;;;;;;7.25;7.00;;;;;;;;5072990;27;51125;-62
2022/08/12 10:49:58;;;;;;;;;8.00;7.75;;;;;;;;5073653;28;50955;-63
2022/08/12 10:52:24;;;;;;;;;7.00;7.00;;;;;;;;5073042;27;52184;-62
2022/08/12 10:54:49;;;;;;;;;7.50;7.50;;;;;;;;5073230;27;50895;-61
2022/08/12 10:57:15;;;;;;;;;5.75;5.75;;;;;;;;5071857;28;51160;-66
2022/08/12 10:59:41;;;;;;;;;8.67;8.33;;;;;;;;5071624;27;51180;-65
2022/08/12 11:02:06;;;;;;;;;7.67;7.00;;;;;;;;5072226;28;53217;-63
2022/08/12 11:04:34;;;;;;;;;7.00;6.33;;;;;;;;5073218;28;51248;-63
2022/08/12 11:06:59;;;;;;;;;6.33;5.67;;;;;;;;5073004;27;51132;-63
2022/08/12 11:09:30;;;;;;;;;8.33;7.67;;;;;;;;5073097;28;50973;-63
2022/08/12 11:11:55;;;;;;;;;8.00;8.00;;;;;;;;5061732;28;52212;-62
2022/08/12 11:14:32;;;;;;;;;9.00;9.00;;;;;;;;5072986;27;51166;-63
2022/08/12 11:16:58;;;;;;;;;7.00;7.00;;;;;;;;5072645;27;50864;-63
2022/08/12 11:19:24;;;;;;;;;7.25;7.25;;;;;;;;5072451;28;51077;-62
2022/08/12 11:21:51;;;;;;;;;7.00;6.33;;;;;;;;5071693;28;52250;-63
2022/08/12 11:24:16;;;;;;;;;9.00;8.33;;;;;;;;5072468;28;51024;-62
2022/08/12 11:26:41;;;;;;;;;7.00;7.00;;;;;;;;5072988;28;51053;-62
2022/08/12 11:29:06;;;;;;;;;4.67;4.67;;;;;;;;5071347;28;51192;-63
2022/08/12 11:31:31;;;;;;;;;6.00;5.33;;;;;;;;5072386;28;52125;-62
2022/08/12 11:33:57;;;;;;;;;1.33;1.33;;;;;;;;5072430;28;50993;-63
2022/08/12 11:36:22;;;;;;;;;8.67;8.67;;;;;;;;5072467;28;50947;-63
2022/08/12 11:38:48;;;;;;;;;9.00;8.00;;;;;;;;5072754;28;51016;-63
2022/08/12 11:41:13;;;;;;;;;7.00;7.00;;;;;;;;5072566;28;51093;-62
2022/08/12 11:43:38;;;;;;;;;7.00;7.00;;;;;;;;5071081;28;51202;-63
2022/08/12 11:46:03;;;;;;;;;8.00;7.67;;;;;;;;5071237;28;51160;-63
2022/08/12 11:48:29;;;;;;;;;5.67;5.67;;;;;;;;5073098;27;50995;-63
2022/08/12 11:50:54;;;;;;;;;7.67;7.00;;;;;;;;5072838;28;51927;-63
2022/08/12 11:53:20;;;;;;;;;7.00;7.00;;;;;;;;5072520;28;50897;-63
2022/08/12 11:55:45;;;;;;;;;7.33;7.33;;;;;;;;5071764;28;50861;-63
2022/08/12 11:58:10;;;;;;;;;6.00;6.00;;;;;;;;5073010;28;51017;-63
2022/08/12 12:00:36;;;;;;;;;8.67;8.67;;;;;;;;5066735;28;51306;-64
2022/08/12 12:03:01;;;;;;;;;5.33;5.00;;;;;;;;5072739;27;50949;-63
2022/08/12 12:05:26;;;;;;;;;8.00;8.00;;;;;;;;5072470;28;50893;-63
2022/08/12 12:07:51;;;;;;;;;8.00;8.00;;;;;;;;5072482;27;50900;-67
2022/08/12 12:10:18;;;;;;;;;7.00;7.00;;;;;;;;5079443;27;50890;-63
2022/08/12 12:12:44;;;;;;;;;8.00;8.00;;;;;;;;5077630;27;51048;-63
2022/08/12 12:15:09;;;;;;;;;7.33;7.33;;;;;;;;5072863;28;50960;-63
2022/08/12 12:17:35;;;;;;;;;6.00;6.00;;;;;;;;5072554;27;51091;-62
2022/08/12 12:20:00;;;;;;;;;6.00;6.00;;;;;;;;5072405;28;51756;-63
2022/08/12 12:22:26;;;;;;;;;7.67;7.67;;;;;;;;5072606;28;51234;-64
2022/08/12 12:24:53;;;;;;;;;7.67;7.00;;;;;;;;5072154;28;51176;-64
2022/08/12 12:27:19;;;;;;;;;7.00;7.00;;;;;;;;5072099;27;50931;-63
2022/08/12 12:29:44;;;;;;;;;8.67;7.33;;;;;;;;5071474;28;51896;-63
2022/08/12 12:32:09;;;;;;;;;9.00;8.33;;;;;;;;5071485;28;51053;-63
2022/08/12 12:34:34;;;;;;;;;4.00;4.00;;;;;;;;5071859;28;50910;-64
2022/08/12 12:37:00;;;;;;;;;8.33;8.33;;;;;;;;5071729;28;51471;-64
2022/08/12 12:39:25;;;;;;;;;7.00;6.67;;;;;;;;5072259;28;51121;-63
2022/08/12 12:41:50;;;;;;;;;7.00;7.00;;;;;;;;5071499;28;51178;-63
2022/08/12 12:44:15;;;;;;;;;9.00;8.67;;;;;;;;5071747;28;51003;-63
2022/08/12 12:46:41;;;;;;;;;6.00;6.00;;;;;;;;5069813;28;51406;-63
2022/08/12 12:49:06;;;;;;;;;7.00;6.67;;;;;;;;5070077;28;51080;-63
2022/08/12 12:51:31;;;;;;;;;7.67;7.67;;;;;;;;5071784;28;50842;-63
2022/08/12 12:53:56;;;;;;;;;7.33;7.33;;;;;;;;5071586;28;50775;-65
2022/08/12 12:56:23;;;;;;;;;8.00;7.50;;;;;;;;5072043;28;50772;-64
2022/08/12 12:58:52;;;;;;;;;6.33;6.33;;;;;;;;5071471;28;51050;-62
2022/08/12 13:01:24;;;;;;;;;8.00;8.00;;;;;;;;5071319;28;51021;-64
2022/08/12 13:03:52;;;;;;;;;8.00;7.00;;;;;;;;5071315;27;51350;-63
2022/08/12 13:06:18;;;;;;;;;10.00;10.00;;;;;;;;5071310;28;51321;-63
2022/08/12 13:08:43;;;;;;;;;9.25;8.75;;;;;;;;5073731;28;51227;-62
2022/08/12 13:11:10;;;;;;;;;7.33;7.33;;;;;;;;5075218;28;50973;-63
2022/08/12 13:13:35;;;;;;;;;10.00;9.00;;;;;;;;5074516;28;50922;-63
2022/08/12 13:16:01;;;;;;;;;8.33;8.33;;;;;;;;5073133;28;51005;-62
2022/08/12 13:18:30;;;;;;;;;8.67;8.00;;;;;;;;5073058;28;52728;-63
2022/08/12 13:20:56;;;;;;;;;8.00;8.00;;;;;;;;5074711;28;51039;-63
2022/08/12 13:23:21;;;;;;;;;10.33;9.67;;;;;;;;5075133;28;51178;-65
2022/08/12 13:25:46;;;;;;;;;7.00;7.00;;;;;;;;5073724;28;51187;-62
2022/08/12 13:28:22;;;;;;;;;8.00;8.00;;;;;;;;5072963;28;53771;-63
2022/08/12 13:30:51;;;;;;;;;8.33;8.33;;;;;;;;5074155;27;51081;-63
2022/08/12 13:33:21;;;;;;;;;6.00;6.00;;;;;;;;5074888;28;51062;-65
2022/08/12 13:35:49;;;;;;;;;9.33;9.33;;;;;;;;5074677;28;51068;-63
2022/08/12 13:38:14;;;;;;;;;8.25;8.00;;;;;;;;5074087;28;52469;-64
2022/08/12 13:40:40;;;;;;;;;10.00;9.00;;;;;;;;5074352;27;50985;-62
2022/08/12 13:43:05;;;;;;;;;6.00;6.00;;;;;;;;5075368;28;51116;-63
2022/08/12 13:45:31;;;;;;;;;7.33;6.67;;;;;;;;5074605;28;50960;-63
2022/08/12 13:47:56;;;;;;;;;7.67;7.67;;;;;;;;5074397;28;52049;-63
2022/08/12 13:50:31;;;;;;;;;8.67;8.67;;;;;;;;5074575;28;50901;-63
2022/08/12 13:52:58;;;;;;;;;8.00;8.00;;;;;;;;5074809;28;51227;-63
2022/08/12 13:55:24;;;;;;;;;7.25;7.25;;;;;;;;5075351;27;50901;-63
2022/08/12 13:57:50;;;;;;;;;8.00;7.00;;;;;;;;5074587;28;51215;-63
2022/08/12 14:00:15;;;;;;;;;7.00;7.00;;;;;;;;5075274;27;51081;-63
2022/08/12 14:02:41;;;;;;;;;8.33;7.00;;;;;;;;5074340;27;51447;-64
2022/08/12 14:05:08;;;;;;;;;7.00;7.00;;;;;;;;5074582;27;51199;-63
2022/08/12 14:07:50;;;;;;;;;5.67;5.00;;;;;;;;5074916;28;51830;-63
2022/08/12 14:10:35;;;;;;;;;6.67;6.67;;;;;;;;5074351;28;51160;-64
2022/08/12 14:13:06;;;;;;;;;7.67;7.67;;;;;;;;5074292;27;51141;-64
2022/08/12 14:15:35;;;;;;;;;8.33;7.00;;;;;;;;5074453;28;50898;-64
2022/08/12 14:18:08;;;;;;;;;8.75;8.00;;;;;;;;5073908;27;52109;-65
2022/08/12 14:20:33;;;;;;;;;10.00;9.67;;;;;;;;5072001;28;50953;-64
2022/08/12 14:22:59;;;;;;;;;9.67;8.33;;;;;;;;5074335;28;51002;-63
2022/08/12 14:25:27;;;;;;;;;8.67;8.33;;;;;;;;5073774;27;52196;-66
2022/08/12 14:27:54;;;;;;;;;7.67;7.67;;;;;;;;5073972;28;52763;-63
2022/08/12 14:30:19;;;;;;;;;10.00;10.00;;;;;;;;5073636;27;51076;-63
2022/08/12 14:32:44;;;;;;;;;7.75;7.50;;;;;;;;5073978;28;51086;-64
2022/08/12 14:35:09;;;;;;;;;7.00;7.00;;;;;;;;5074016;28;51198;-64
2022/08/12 14:37:38;;;;;;;;;8.33;8.00;;;;;;;;5071879;28;52688;-64
2022/08/12 14:40:03;;;;;;;;;5.75;5.75;;;;;;;;5073905;27;51020;-62
2022/08/12 14:42:29;;;;;;;;;8.00;8.00;;;;;;;;5073922;28;51040;-64
2022/08/12 14:44:56;;;;;;;;;6.00;6.00;;;;;;;;5073532;28;50885;-62
2022/08/12 14:47:22;;;;;;;;;8.25;8.25;;;;;;;;5073420;27;51335;-62
2022/08/12 14:49:47;;;;;;;;;5.67;5.67;;;;;;;;5073914;28;51082;-63
2022/08/12 14:52:12;;;;;;;;;8.00;7.25;;;;;;;;5073498;28;51029;-62
2022/08/12 14:54:38;;;;;;;;;7.75;7.75;;;;;;;;5074019;28;51091;-63
2022/08/12 14:57:05;;;;;;;;;9.50;9.50;;;;;;;;5073309;28;52234;-62
2022/08/12 15:02:19;;;;;;;;;7.00;7.00;;;;;;;;5073038;28;51006;-66
2022/08/12 15:04:44;;;;;;;;;6.67;6.00;;;;;;;;5072912;28;51136;-64
2022/08/12 15:07:11;;;;;;;;;7.00;6.00;;;;;;;;5072878;28;52150;-64
2022/08/12 15:09:37;;;;;;;;;8.00;8.00;;;;;;;;5072744;28;51080;-63
2022/08/12 15:12:02;;;;;;;;;6.75;6.75;;;;;;;;5073314;28;50896;-64
2022/08/12 15:14:28;;;;;;;;;8.00;8.00;;;;;;;;5073263;27;50924;-63
2022/08/12 15:16:53;;;;;;;;;8.50;8.50;;;;;;;;5072408;28;52047;-63
2022/08/12 15:19:18;;;;;;;;;7.67;7.00;;;;;;;;5072907;28;51015;-63
2022/08/12 15:21:43;;;;;;;;;9.50;9.25;;;;;;;;5072970;28;51148;-62
2022/08/12 15:24:09;;;;;;;;;8.00;8.00;;;;;;;;5071748;28;51121;-62
2022/08/12 15:26:37;;;;;;;;;7.33;7.33;;;;;;;;5073024;28;51337;-62
2022/08/12 15:29:04;;;;;;;;;7.25;7.25;;;;;;;;5072773;28;50995;-63
2022/08/12 15:31:29;;;;;;;;;7.00;7.00;;;;;;;;5072767;28;51033;-63
2022/08/12 15:33:55;;;;;;;;;10.00;9.33;;;;;;;;5071512;28;51264;-64
2022/08/12 15:36:20;;;;;;;;;8.67;8.00;;;;;;;;5072685;28;51138;-63
2022/08/12 15:38:45;;;;;;;;;7.00;5.67;;;;;;;;5072588;28;50969;-62
2022/08/12 15:41:13;;;;;;;;;8.67;8.67;;;;;;;;5073021;27;50927;-63
2022/08/12 15:43:38;;;;;;;;;7.25;7.25;;;;;;;;5072908;28;51255;-61
2022/08/12 15:46:05;;;;;;;;;6.75;6.50;;;;;;;;5072253;28;51807;-63
2022/08/12 15:48:33;;;;;;;;;8.00;7.00;;;;;;;;5072406;27;51032;-62
2022/08/12 15:50:59;;;;;;;;;7.00;7.00;;;;;;;;5072532;27;51079;-61
2022/08/12 15:56:09;;;;;;;;;9.75;9.25;;;;;;;;5072129;28;50922;-63
2022/08/12 15:58:37;;;;;;;;;9.75;8.00;;;;;;;;5072325;28;51046;-61
2022/08/12 16:01:02;;;;;;;;;7.00;7.00;;;;;;;;5063746;28;51071;-63
2022/08/12 16:03:28;;;;;;;;;8.00;7.75;;;;;;;;5067280;28;50917;-64
2022/08/12 16:05:54;;;;;;;;;7.00;7.00;;;;;;;;5071792;28;51570;-65
2022/08/12 16:08:19;;;;;;;;;7.67;7.00;;;;;;;;5070682;28;51502;-63
2022/08/12 16:10:44;;;;;;;;;7.00;7.00;;;;;;;;5072039;28;51024;-63
2022/08/12 16:13:14;;;;;;;;;6.67;6.67;;;;;;;;5071964;28;50872;-63
2022/08/12 16:15:40;;;;;;;;;7.67;7.67;;;;;;;;5071335;27;52195;-62
2022/08/12 16:18:05;;;;;;;;;6.00;6.00;;;;;;;;5070228;28;51095;-63
2022/08/12 16:20:31;;;;;;;;;7.00;7.00;;;;;;;;5050389;28;51043;-63